createdAt,value
2022-11-09T07:48:15.103Z,39.73
2022-11-09T07:50:42.691Z,29.95
2022-11-09T07:53:12.443Z,28.38
2022-11-09T07:55:39.343Z,46.45
2022-11-09T07:58:09.162Z,50.63
2022-11-09T08:00:38.535Z,40.45
2022-11-09T08:03:06.060Z,34.58
2022-11-09T08:05:33.778Z,57.95
2022-11-09T08:08:03.578Z,39.83
2022-11-09T08:10:31.783Z,38.17
2022-11-09T08:13:01.252Z,33.97
2022-11-09T08:15:28.989Z,39.00
2022-11-09T08:18:00.541Z,42.95
2022-11-09T08:20:27.944Z,51.97
2022-11-09T08:22:57.378Z,41.42
2022-11-09T08:25:28.096Z,38.38
2022-11-09T08:27:56.830Z,47.22
2022-11-09T08:30:24.225Z,48.00
2022-11-09T08:32:51.128Z,50.40
2022-11-09T08:35:21.263Z,49.47
2022-11-09T08:37:49.905Z,47.88
2022-11-09T08:40:19.734Z,39.47
2022-11-09T08:42:47.279Z,46.42
2022-11-09T08:45:14.420Z,36.50
2022-11-09T08:47:41.883Z,36.95
2022-11-09T08:50:10.607Z,43.53
2022-11-09T08:52:37.667Z,44.10
2022-11-09T08:55:05.154Z,42.40
2022-11-09T08:57:32.439Z,40.47
2022-11-09T08:59:59.328Z,47.60
2022-11-09T09:02:26.120Z,44.63
2022-11-09T09:04:52.907Z,37.20
2022-11-09T09:07:19.795Z,45.90
2022-11-09T09:09:46.723Z,46.20
2022-11-09T09:12:13.646Z,40.80
2022-11-09T09:14:40.559Z,34.58
2022-11-09T09:17:07.390Z,48.20
2022-11-09T09:19:34.866Z,48.03
2022-11-09T09:22:02.041Z,49.17
2022-11-09T09:24:28.958Z,48.75
2022-11-09T09:26:55.757Z,47.40
2022-11-09T09:29:22.638Z,40.80
2022-11-09T09:31:49.458Z,48.80
2022-11-09T09:34:16.380Z,41.25
2022-11-09T09:36:47.554Z,45.75
2022-11-09T09:39:15.401Z,51.95
2022-11-09T09:42:00.839Z,36.55
2022-11-09T09:44:43.715Z,45.65
2022-11-09T09:49:55.439Z,52.55
2022-11-09T09:52:50.718Z,50.83
2022-11-09T09:55:36.776Z,46.63
2022-11-09T09:58:23.757Z,61.22
2022-11-09T10:00:55.250Z,45.05
2022-11-09T10:03:23.368Z,56.92
2022-11-09T10:06:14.349Z,47.33
2022-11-09T10:09:03.464Z,59.60
2022-11-09T10:12:04.810Z,42.38
2022-11-09T10:15:02.626Z,59.00
2022-11-09T10:17:51.594Z,67.55
2022-11-09T10:20:49.075Z,48.60
2022-11-09T10:23:47.748Z,47.33
2022-11-09T10:26:41.310Z,55.33
2022-11-09T10:29:28.335Z,51.03
2022-11-09T10:32:01.343Z,61.20
2022-11-09T10:34:38.018Z,64.60
2022-11-09T10:37:13.468Z,50.58
2022-11-09T10:39:51.434Z,69.65
2022-11-09T10:42:36.862Z,60.15
2022-11-09T10:45:32.218Z,61.30
2022-11-09T10:48:34.027Z,59.60
2022-11-09T10:51:31.616Z,57.88
2022-11-09T10:54:20.063Z,62.15
2022-11-09T10:57:16.403Z,61.70
2022-11-09T11:00:02.547Z,63.45
2022-11-09T11:02:50.114Z,71.93
2022-11-09T11:05:35.328Z,61.83
2022-11-09T11:08:24.186Z,80.63
2022-11-09T11:11:34.847Z,67.07
2022-11-09T11:14:36.401Z,62.00
2022-11-09T11:17:23.179Z,65.75
2022-11-09T11:20:28.019Z,65.88
2022-11-09T11:23:15.196Z,59.25
2022-11-09T11:26:11.495Z,62.97
2022-11-09T11:29:02.036Z,67.65
2022-11-09T11:31:47.964Z,68.50
2022-11-09T11:34:58.373Z,74.03
2022-11-09T11:37:47.432Z,68.03
2022-11-09T11:40:42.027Z,76.10
2022-11-09T11:43:33.556Z,69.43
2022-11-09T11:46:33.332Z,84.07
2022-11-09T11:49:39.784Z,72.20
2022-11-09T11:52:31.670Z,54.65
2022-11-09T11:55:39.041Z,74.82
2022-11-09T11:59:01.886Z,70.07
2022-11-09T12:02:15.908Z,75.13
2022-11-09T12:05:19.862Z,70.05
2022-11-09T12:08:07.636Z,81.20
2022-11-09T12:11:13.930Z,85.40
2022-11-09T12:14:39.883Z,78.05
2022-11-09T12:17:52.270Z,76.13
2022-11-09T12:20:58.008Z,73.95
2022-11-09T12:24:01.906Z,67.35
2022-11-09T12:27:25.739Z,67.70
2022-11-09T12:30:14.828Z,67.75
2022-11-09T12:33:06.031Z,75.78
2022-11-09T12:36:01.146Z,67.43
2022-11-09T12:39:04.467Z,68.13
2022-11-09T12:44:43.429Z,65.15
2022-11-09T12:47:40.439Z,64.82
2022-11-09T12:50:27.359Z,65.10
2022-11-09T12:53:13.802Z,63.60
2022-11-09T12:55:58.926Z,60.47
2022-11-09T12:58:44.530Z,71.28
2022-11-09T13:01:32.891Z,67.93
2022-11-09T13:04:20.445Z,65.88
2022-11-09T13:07:14.655Z,62.20
2022-11-09T13:10:02.321Z,64.35
2022-11-09T13:12:47.878Z,62.80
2022-11-09T13:15:37.948Z,68.63
2022-11-09T13:18:26.553Z,67.60
2022-11-09T13:21:21.098Z,68.15
2022-11-09T13:24:54.620Z,65.65
2022-11-09T19:29:43.850Z,56.50
2022-11-09T19:32:29.406Z,56.75
2022-11-09T19:35:14.934Z,73.35
2022-11-09T19:38:05.154Z,62.95
2022-11-09T19:40:55.061Z,60.88
2022-11-09T19:43:40.642Z,68.53
2022-11-09T19:46:27.597Z,56.92
2022-11-09T19:49:12.947Z,65.72
2022-11-09T19:52:01.507Z,60.08
2022-11-09T19:54:46.784Z,54.53
2022-11-09T19:57:32.296Z,63.35
2022-11-09T20:00:18.694Z,58.85
2022-11-09T20:03:05.158Z,64.00
2022-11-09T20:05:54.547Z,72.47
2022-11-09T20:08:43.240Z,63.28
2022-11-09T20:11:47.961Z,65.18
2022-11-09T20:14:33.532Z,65.97
2022-11-09T20:17:18.931Z,60.50
2022-11-09T20:20:04.995Z,58.08
2022-11-09T20:22:51.762Z,60.63
2022-11-09T20:25:36.961Z,58.45
2022-11-09T20:28:22.684Z,66.05
2022-11-09T20:31:13.967Z,69.50
2022-11-09T20:34:01.520Z,67.97
2022-11-09T20:36:46.932Z,55.15
2022-11-09T20:39:32.786Z,66.88
2022-11-09T20:42:20.861Z,65.40
2022-11-09T20:45:07.459Z,63.13
2022-11-09T20:48:24.940Z,55.22
2022-11-09T20:51:09.002Z,66.53
2022-11-09T20:53:55.750Z,63.33
2022-11-09T20:56:45.191Z,52.13
2022-11-09T20:59:33.865Z,61.17
2022-11-09T21:02:19.656Z,54.75
2022-11-09T21:05:08.215Z,59.10
2022-11-09T21:07:53.754Z,53.20
2022-11-09T21:10:39.355Z,55.75
2022-11-09T21:13:24.544Z,54.65
2022-11-09T21:16:15.634Z,59.70
2022-11-09T21:19:03.605Z,77.15
2022-11-09T21:21:49.160Z,60.97
2022-11-09T21:24:53.269Z,56.88
2022-11-09T21:27:56.991Z,56.88
2022-11-09T21:30:42.441Z,48.05
2022-11-09T21:33:28.342Z,53.65
2022-11-09T21:36:14.662Z,52.35
2022-11-09T21:39:01.932Z,44.78
2022-11-09T21:41:47.755Z,45.28
2022-11-09T21:44:33.822Z,50.05
2022-11-09T21:47:19.147Z,47.95
2022-11-09T21:50:09.591Z,56.40
2022-11-09T21:55:42.553Z,47.45
